sensor_id;sensor_type;location;lat;lon;timestamp;P1;durP1;ratioP1;P2;durP2;ratioP2
52650;SDS011;38537;47.226;39.702;2023-08-06T00:01:06;8.80;;;4.53;;
52650;SDS011;38537;47.226;39.702;2023-08-06T00:03:34;6.35;;;4.90;;
52650;SDS011;38537;47.226;39.702;2023-08-06T00:06:01;7.47;;;4.50;;
52650;SDS011;38537;47.226;39.702;2023-08-06T00:08:29;6.38;;;4.38;;
52650;SDS011;38537;47.226;39.702;2023-08-06T00:10:56;5.28;;;4.50;;
52650;SDS011;38537;47.226;39.702;2023-08-06T00:13:23;6.22;;;4.90;;
52650;SDS011;38537;47.226;39.702;2023-08-06T00:15:51;8.05;;;4.80;;
52650;SDS011;38537;47.226;39.702;2023-08-06T00:18:18;5.30;;;4.32;;
52650;SDS011;38537;47.226;39.702;2023-08-06T00:20:45;6.05;;;4.22;;
52650;SDS011;38537;47.226;39.702;2023-08-06T00:23:13;6.95;;;4.50;;
52650;SDS011;38537;47.226;39.702;2023-08-06T00:25:40;4.88;;;4.28;;
52650;SDS011;38537;47.226;39.702;2023-08-06T00:28:08;7.55;;;4.30;;
52650;SDS011;38537;47.226;39.702;2023-08-06T00:30:35;7.13;;;4.50;;
52650;SDS011;38537;47.226;39.702;2023-08-06T00:33:02;6.50;;;4.55;;
52650;SDS011;38537;47.226;39.702;2023-08-06T00:35:31;7.47;;;4.65;;
52650;SDS011;38537;47.226;39.702;2023-08-06T00:37:58;10.52;;;4.53;;
52650;SDS011;38537;47.226;39.702;2023-08-06T00:40:26;8.93;;;4.30;;
52650;SDS011;38537;47.226;39.702;2023-08-06T00:42:55;7.93;;;4.40;;
52650;SDS011;38537;47.226;39.702;2023-08-06T00:45:22;5.82;;;3.97;;
52650;SDS011;38537;47.226;39.702;2023-08-06T00:47:50;7.93;;;3.88;;
52650;SDS011;38537;47.226;39.702;2023-08-06T00:50:19;10.75;;;4.20;;
52650;SDS011;38537;47.226;39.702;2023-08-06T00:52:49;7.38;;;4.60;;
52650;SDS011;38537;47.226;39.702;2023-08-06T00:55:16;7.43;;;4.32;;
52650;SDS011;38537;47.226;39.702;2023-08-06T00:57:45;7.93;;;4.38;;
52650;SDS011;38537;47.226;39.702;2023-08-06T01:00:13;6.25;;;3.90;;
52650;SDS011;38537;47.226;39.702;2023-08-06T01:02:40;6.57;;;4.28;;
52650;SDS011;38537;47.226;39.702;2023-08-06T01:05:08;7.10;;;4.57;;
52650;SDS011;38537;47.226;39.702;2023-08-06T01:10:20;11.48;;;3.95;;
52650;SDS011;38537;47.226;39.702;2023-08-06T01:15:41;7.70;;;4.20;;
52650;SDS011;38537;47.226;39.702;2023-08-06T01:18:13;5.50;;;3.95;;
52650;SDS011;38537;47.226;39.702;2023-08-06T01:20:41;6.97;;;4.05;;
52650;SDS011;38537;47.226;39.702;2023-08-06T01:23:08;4.53;;;4.00;;
52650;SDS011;38537;47.226;39.702;2023-08-06T01:28:35;9.30;;;4.15;;
52650;SDS011;38537;47.226;39.702;2023-08-06T01:31:27;7.25;;;4.13;;
52650;SDS011;38537;47.226;39.702;2023-08-06T01:33:58;4.82;;;3.90;;
52650;SDS011;38537;47.226;39.702;2023-08-06T01:36:27;6.65;;;4.00;;
52650;SDS011;38537;47.226;39.702;2023-08-06T01:38:55;7.22;;;4.25;;
52650;SDS011;38537;47.226;39.702;2023-08-06T01:41:25;5.70;;;4.18;;
52650;SDS011;38537;47.226;39.702;2023-08-06T01:43:52;6.55;;;3.85;;
52650;SDS011;38537;47.226;39.702;2023-08-06T01:46:19;4.60;;;3.85;;
52650;SDS011;38537;47.226;39.702;2023-08-06T01:48:46;8.70;;;3.80;;
52650;SDS011;38537;47.226;39.702;2023-08-06T01:51:14;5.63;;;3.88;;
52650;SDS011;38537;47.226;39.702;2023-08-06T01:53:41;6.40;;;4.10;;
52650;SDS011;38537;47.226;39.702;2023-08-06T01:56:08;7.10;;;3.90;;
52650;SDS011;38537;47.226;39.702;2023-08-06T01:58:35;7.40;;;4.30;;
52650;SDS011;38537;47.226;39.702;2023-08-06T02:01:03;9.43;;;4.70;;
52650;SDS011;38537;47.226;39.702;2023-08-06T02:03:30;5.40;;;4.38;;
52650;SDS011;38537;47.226;39.702;2023-08-06T02:05:57;8.20;;;4.18;;
52650;SDS011;38537;47.226;39.702;2023-08-06T02:08:25;5.57;;;4.15;;
52650;SDS011;38537;47.226;39.702;2023-08-06T02:10:54;6.50;;;4.63;;
52650;SDS011;38537;47.226;39.702;2023-08-06T02:13:21;7.90;;;4.55;;
52650;SDS011;38537;47.226;39.702;2023-08-06T02:15:49;8.90;;;4.50;;
52650;SDS011;38537;47.226;39.702;2023-08-06T02:18:16;5.68;;;4.38;;
52650;SDS011;38537;47.226;39.702;2023-08-06T02:20:44;8.40;;;4.80;;
52650;SDS011;38537;47.226;39.702;2023-08-06T02:23:24;7.07;;;4.80;;
52650;SDS011;38537;47.226;39.702;2023-08-06T02:26:11;11.73;;;4.75;;
52650;SDS011;38537;47.226;39.702;2023-08-06T02:28:38;8.60;;;4.35;;
52650;SDS011;38537;47.226;39.702;2023-08-06T02:31:06;9.85;;;4.80;;
52650;SDS011;38537;47.226;39.702;2023-08-06T02:33:37;7.50;;;4.68;;
52650;SDS011;38537;47.226;39.702;2023-08-06T02:36:04;7.63;;;4.47;;
52650;SDS011;38537;47.226;39.702;2023-08-06T02:38:32;8.90;;;4.45;;
52650;SDS011;38537;47.226;39.702;2023-08-06T02:41:03;13.25;;;4.50;;
52650;SDS011;38537;47.226;39.702;2023-08-06T02:43:31;9.45;;;4.68;;
52650;SDS011;38537;47.226;39.702;2023-08-06T02:46:00;7.82;;;4.50;;
52650;SDS011;38537;47.226;39.702;2023-08-06T02:48:28;8.40;;;4.88;;
52650;SDS011;38537;47.226;39.702;2023-08-06T02:50:59;7.18;;;5.47;;
52650;SDS011;38537;47.226;39.702;2023-08-06T02:53:29;7.22;;;4.80;;
52650;SDS011;38537;47.226;39.702;2023-08-06T02:55:59;7.88;;;4.40;;
52650;SDS011;38537;47.226;39.702;2023-08-06T02:58:34;5.78;;;4.43;;
52650;SDS011;38537;47.226;39.702;2023-08-06T03:01:10;9.98;;;4.75;;
52650;SDS011;38537;47.226;39.702;2023-08-06T03:03:47;8.98;;;4.65;;
52650;SDS011;38537;47.226;39.702;2023-08-06T03:06:21;8.02;;;4.43;;
52650;SDS011;38537;47.226;39.702;2023-08-06T03:08:51;7.10;;;4.90;;
52650;SDS011;38537;47.226;39.702;2023-08-06T03:11:21;7.63;;;4.50;;
52650;SDS011;38537;47.226;39.702;2023-08-06T03:13:53;8.68;;;4.40;;
52650;SDS011;38537;47.226;39.702;2023-08-06T03:16:20;8.73;;;4.75;;
52650;SDS011;38537;47.226;39.702;2023-08-06T03:18:48;8.10;;;4.72;;
52650;SDS011;38537;47.226;39.702;2023-08-06T03:21:16;9.98;;;4.68;;
52650;SDS011;38537;47.226;39.702;2023-08-06T03:23:43;9.20;;;4.47;;
52650;SDS011;38537;47.226;39.702;2023-08-06T03:28:45;13.30;;;4.45;;
52650;SDS011;38537;47.226;39.702;2023-08-06T03:31:14;11.18;;;4.53;;
52650;SDS011;38537;47.226;39.702;2023-08-06T03:33:44;7.00;;;4.80;;
52650;SDS011;38537;47.226;39.702;2023-08-06T03:36:18;10.57;;;4.70;;
52650;SDS011;38537;47.226;39.702;2023-08-06T03:38:45;11.40;;;4.35;;
52650;SDS011;38537;47.226;39.702;2023-08-06T03:41:14;5.45;;;4.15;;
52650;SDS011;38537;47.226;39.702;2023-08-06T03:43:42;10.13;;;4.40;;
52650;SDS011;38537;47.226;39.702;2023-08-06T03:46:15;5.35;;;4.55;;
52650;SDS011;38537;47.226;39.702;2023-08-06T03:48:43;7.50;;;4.32;;
52650;SDS011;38537;47.226;39.702;2023-08-06T03:51:10;10.32;;;4.43;;
52650;SDS011;38537;47.226;39.702;2023-08-06T03:53:38;8.95;;;4.90;;
52650;SDS011;38537;47.226;39.702;2023-08-06T03:56:06;8.75;;;4.25;;
52650;SDS011;38537;47.226;39.702;2023-08-06T03:58:34;12.40;;;4.35;;
52650;SDS011;38537;47.226;39.702;2023-08-06T04:01:01;7.93;;;4.30;;
52650;SDS011;38537;47.226;39.702;2023-08-06T04:03:48;7.00;;;4.00;;
52650;SDS011;38537;47.226;39.702;2023-08-06T04:06:15;8.52;;;4.28;;
52650;SDS011;38537;47.226;39.702;2023-08-06T04:08:43;6.75;;;4.28;;
52650;SDS011;38537;47.226;39.702;2023-08-06T04:11:10;7.10;;;3.92;;
52650;SDS011;38537;47.226;39.702;2023-08-06T04:13:44;6.15;;;4.10;;
52650;SDS011;38537;47.226;39.702;2023-08-06T04:16:12;7.07;;;4.05;;
52650;SDS011;38537;47.226;39.702;2023-08-06T04:18:42;6.70;;;3.90;;
52650;SDS011;38537;47.226;39.702;2023-08-06T04:21:09;4.93;;;3.90;;
52650;SDS011;38537;47.226;39.702;2023-08-06T04:23:36;5.18;;;3.65;;
52650;SDS011;38537;47.226;39.702;2023-08-06T04:26:06;5.85;;;3.80;;
52650;SDS011;38537;47.226;39.702;2023-08-06T04:28:36;9.25;;;4.05;;
52650;SDS011;38537;47.226;39.702;2023-08-06T04:31:04;7.30;;;3.80;;
52650;SDS011;38537;47.226;39.702;2023-08-06T04:33:33;6.90;;;3.88;;
52650;SDS011;38537;47.226;39.702;2023-08-06T04:36:06;8.25;;;3.72;;
52650;SDS011;38537;47.226;39.702;2023-08-06T04:38:34;9.00;;;4.35;;
52650;SDS011;38537;47.226;39.702;2023-08-06T04:41:02;6.60;;;3.78;;
52650;SDS011;38537;47.226;39.702;2023-08-06T04:43:30;12.70;;;3.60;;
52650;SDS011;38537;47.226;39.702;2023-08-06T04:45:58;8.65;;;3.55;;
52650;SDS011;38537;47.226;39.702;2023-08-06T04:48:25;10.57;;;4.00;;
52650;SDS011;38537;47.226;39.702;2023-08-06T04:50:52;7.05;;;3.40;;
52650;SDS011;38537;47.226;39.702;2023-08-06T04:53:20;10.38;;;3.70;;
52650;SDS011;38537;47.226;39.702;2023-08-06T04:55:47;10.88;;;4.22;;
52650;SDS011;38537;47.226;39.702;2023-08-06T04:58:14;6.00;;;3.67;;
52650;SDS011;38537;47.226;39.702;2023-08-06T05:00:42;11.80;;;3.78;;
52650;SDS011;38537;47.226;39.702;2023-08-06T05:03:10;6.63;;;3.65;;
52650;SDS011;38537;47.226;39.702;2023-08-06T05:05:39;7.75;;;3.50;;
52650;SDS011;38537;47.226;39.702;2023-08-06T05:08:13;9.40;;;3.85;;
52650;SDS011;38537;47.226;39.702;2023-08-06T05:10:45;8.35;;;3.70;;
52650;SDS011;38537;47.226;39.702;2023-08-06T05:13:13;4.30;;;3.60;;
52650;SDS011;38537;47.226;39.702;2023-08-06T05:15:41;8.13;;;3.85;;
52650;SDS011;38537;47.226;39.702;2023-08-06T05:18:09;6.07;;;3.67;;
52650;SDS011;38537;47.226;39.702;2023-08-06T05:20:39;11.70;;;3.65;;
52650;SDS011;38537;47.226;39.702;2023-08-06T05:23:08;7.88;;;3.75;;
52650;SDS011;38537;47.226;39.702;2023-08-06T05:25:36;5.70;;;3.75;;
52650;SDS011;38537;47.226;39.702;2023-08-06T05:28:03;6.45;;;3.78;;
52650;SDS011;38537;47.226;39.702;2023-08-06T05:30:31;7.18;;;3.72;;
52650;SDS011;38537;47.226;39.702;2023-08-06T05:32:59;5.18;;;3.50;;
52650;SDS011;38537;47.226;39.702;2023-08-06T05:35:27;8.32;;;3.97;;
52650;SDS011;38537;47.226;39.702;2023-08-06T05:37:54;5.80;;;3.72;;
52650;SDS011;38537;47.226;39.702;2023-08-06T05:40:21;5.30;;;3.78;;
52650;SDS011;38537;47.226;39.702;2023-08-06T05:42:49;6.72;;;4.05;;
52650;SDS011;38537;47.226;39.702;2023-08-06T05:45:16;7.68;;;3.83;;
52650;SDS011;38537;47.226;39.702;2023-08-06T05:47:43;5.72;;;3.80;;
52650;SDS011;38537;47.226;39.702;2023-08-06T05:50:10;6.45;;;4.00;;
52650;SDS011;38537;47.226;39.702;2023-08-06T05:52:38;7.90;;;3.63;;
52650;SDS011;38537;47.226;39.702;2023-08-06T05:55:05;7.60;;;3.63;;
52650;SDS011;38537;47.226;39.702;2023-08-06T05:57:33;6.15;;;3.47;;
52650;SDS011;38537;47.226;39.702;2023-08-06T06:00:00;6.47;;;3.53;;
52650;SDS011;38537;47.226;39.702;2023-08-06T06:02:39;8.07;;;3.72;;
52650;SDS011;38537;47.226;39.702;2023-08-06T06:05:06;5.25;;;3.55;;
52650;SDS011;38537;47.226;39.702;2023-08-06T06:07:34;5.35;;;3.25;;
52650;SDS011;38537;47.226;39.702;2023-08-06T06:10:01;6.28;;;3.60;;
52650;SDS011;38537;47.226;39.702;2023-08-06T06:12:29;5.22;;;3.65;;
52650;SDS011;38537;47.226;39.702;2023-08-06T06:14:56;4.90;;;3.58;;
52650;SDS011;38537;47.226;39.702;2023-08-06T06:17:23;12.63;;;3.85;;
52650;SDS011;38537;47.226;39.702;2023-08-06T06:19:51;4.00;;;3.50;;
52650;SDS011;38537;47.226;39.702;2023-08-06T06:22:19;6.55;;;3.80;;
52650;SDS011;38537;47.226;39.702;2023-08-06T06:24:46;8.65;;;3.58;;
52650;SDS011;38537;47.226;39.702;2023-08-06T06:27:14;4.97;;;3.40;;
52650;SDS011;38537;47.226;39.702;2023-08-06T06:29:41;5.47;;;3.85;;
52650;SDS011;38537;47.226;39.702;2023-08-06T06:32:08;6.30;;;3.80;;
52650;SDS011;38537;47.226;39.702;2023-08-06T06:34:35;11.75;;;3.97;;
52650;SDS011;38537;47.226;39.702;2023-08-06T06:37:03;6.72;;;3.70;;
52650;SDS011;38537;47.226;39.702;2023-08-06T06:39:30;6.32;;;3.90;;
52650;SDS011;38537;47.226;39.702;2023-08-06T06:41:58;7.25;;;3.60;;
52650;SDS011;38537;47.226;39.702;2023-08-06T06:44:34;5.97;;;3.63;;
52650;SDS011;38537;47.226;39.702;2023-08-06T06:47:02;6.55;;;3.70;;
52650;SDS011;38537;47.226;39.702;2023-08-06T06:49:29;6.80;;;3.72;;
52650;SDS011;38537;47.226;39.702;2023-08-06T06:51:57;6.10;;;3.63;;
52650;SDS011;38537;47.226;39.702;2023-08-06T06:54:24;7.50;;;3.58;;
52650;SDS011;38537;47.226;39.702;2023-08-06T06:56:51;6.05;;;3.50;;
52650;SDS011;38537;47.226;39.702;2023-08-06T06:59:19;6.82;;;3.60;;
52650;SDS011;38537;47.226;39.702;2023-08-06T07:01:46;6.13;;;3.60;;
52650;SDS011;38537;47.226;39.702;2023-08-06T07:04:14;4.57;;;3.20;;
52650;SDS011;38537;47.226;39.702;2023-08-06T07:06:41;9.52;;;3.45;;
52650;SDS011;38537;47.226;39.702;2023-08-06T07:09:08;7.05;;;3.38;;
52650;SDS011;38537;47.226;39.702;2023-08-06T07:11:35;5.45;;;3.33;;
52650;SDS011;38537;47.226;39.702;2023-08-06T07:14:03;7.45;;;3.70;;
52650;SDS011;38537;47.226;39.702;2023-08-06T07:16:30;6.25;;;3.35;;
52650;SDS011;38537;47.226;39.702;2023-08-06T07:18:57;6.03;;;3.15;;
52650;SDS011;38537;47.226;39.702;2023-08-06T07:21:25;7.80;;;3.38;;
52650;SDS011;38537;47.226;39.702;2023-08-06T07:23:52;8.43;;;3.60;;
52650;SDS011;38537;47.226;39.702;2023-08-06T07:26:19;5.43;;;3.10;;
52650;SDS011;38537;47.226;39.702;2023-08-06T07:28:47;5.25;;;3.05;;
52650;SDS011;38537;47.226;39.702;2023-08-06T07:31:14;7.68;;;3.70;;
52650;SDS011;38537;47.226;39.702;2023-08-06T07:33:42;5.72;;;3.53;;
52650;SDS011;38537;47.226;39.702;2023-08-06T07:36:13;5.97;;;3.22;;
52650;SDS011;38537;47.226;39.702;2023-08-06T07:38:41;7.47;;;3.20;;
52650;SDS011;38537;47.226;39.702;2023-08-06T07:41:08;9.82;;;3.15;;
52650;SDS011;38537;47.226;39.702;2023-08-06T07:43:36;8.07;;;3.00;;
52650;SDS011;38537;47.226;39.702;2023-08-06T07:46:08;4.35;;;2.90;;
52650;SDS011;38537;47.226;39.702;2023-08-06T07:48:35;7.88;;;3.15;;
52650;SDS011;38537;47.226;39.702;2023-08-06T07:51:04;5.15;;;2.90;;
52650;SDS011;38537;47.226;39.702;2023-08-06T07:53:31;4.32;;;3.10;;
52650;SDS011;38537;47.226;39.702;2023-08-06T07:56:04;5.35;;;3.50;;
52650;SDS011;38537;47.226;39.702;2023-08-06T07:58:31;5.57;;;2.90;;
52650;SDS011;38537;47.226;39.702;2023-08-06T08:01:00;6.88;;;2.95;;
52650;SDS011;38537;47.226;39.702;2023-08-06T08:03:33;5.57;;;2.92;;
52650;SDS011;38537;47.226;39.702;2023-08-06T08:06:03;4.20;;;2.80;;
52650;SDS011;38537;47.226;39.702;2023-08-06T08:08:30;5.35;;;2.83;;
52650;SDS011;38537;47.226;39.702;2023-08-06T08:11:00;8.13;;;3.30;;
52650;SDS011;38537;47.226;39.702;2023-08-06T08:13:30;7.50;;;2.92;;
52650;SDS011;38537;47.226;39.702;2023-08-06T08:16:00;7.15;;;3.10;;
52650;SDS011;38537;47.226;39.702;2023-08-06T08:18:30;5.38;;;2.78;;
52650;SDS011;38537;47.226;39.702;2023-08-06T08:20:58;9.70;;;3.15;;
52650;SDS011;38537;47.226;39.702;2023-08-06T08:23:26;7.35;;;3.08;;
52650;SDS011;38537;47.226;39.702;2023-08-06T08:25:59;5.75;;;2.72;;
52650;SDS011;38537;47.226;39.702;2023-08-06T08:28:27;3.78;;;2.65;;
52650;SDS011;38537;47.226;39.702;2023-08-06T08:30:55;10.90;;;3.15;;
52650;SDS011;38537;47.226;39.702;2023-08-06T08:33:26;6.93;;;2.95;;
52650;SDS011;38537;47.226;39.702;2023-08-06T08:35:53;7.30;;;2.97;;
52650;SDS011;38537;47.226;39.702;2023-08-06T08:38:23;8.10;;;2.75;;
52650;SDS011;38537;47.226;39.702;2023-08-06T08:40:53;10.05;;;3.03;;
52650;SDS011;38537;47.226;39.702;2023-08-06T08:43:22;5.97;;;2.80;;
52650;SDS011;38537;47.226;39.702;2023-08-06T08:45:50;9.05;;;3.00;;
52650;SDS011;38537;47.226;39.702;2023-08-06T08:48:29;7.20;;;2.80;;
52650;SDS011;38537;47.226;39.702;2023-08-06T08:51:00;4.32;;;2.80;;
52650;SDS011;38537;47.226;39.702;2023-08-06T08:53:35;6.78;;;2.65;;
52650;SDS011;38537;47.226;39.702;2023-08-06T08:56:09;7.25;;;3.17;;
52650;SDS011;38537;47.226;39.702;2023-08-06T08:58:40;6.78;;;2.50;;
52650;SDS011;38537;47.226;39.702;2023-08-06T09:01:08;5.13;;;2.63;;
52650;SDS011;38537;47.226;39.702;2023-08-06T09:03:39;5.70;;;2.83;;
52650;SDS011;38537;47.226;39.702;2023-08-06T09:06:07;6.38;;;2.80;;
52650;SDS011;38537;47.226;39.702;2023-08-06T09:08:41;4.40;;;2.65;;
52650;SDS011;38537;47.226;39.702;2023-08-06T09:11:14;7.70;;;2.50;;
52650;SDS011;38537;47.226;39.702;2023-08-06T09:13:45;4.82;;;2.83;;
52650;SDS011;38537;47.226;39.702;2023-08-06T09:16:13;5.07;;;2.60;;
52650;SDS011;38537;47.226;39.702;2023-08-06T09:18:40;5.97;;;2.85;;
52650;SDS011;38537;47.226;39.702;2023-08-06T09:21:14;4.95;;;2.70;;
52650;SDS011;38537;47.226;39.702;2023-08-06T09:23:43;5.50;;;2.60;;
52650;SDS011;38537;47.226;39.702;2023-08-06T09:26:13;6.85;;;2.70;;
52650;SDS011;38537;47.226;39.702;2023-08-06T09:28:42;6.13;;;2.30;;
52650;SDS011;38537;47.226;39.702;2023-08-06T09:31:10;8.02;;;2.85;;
52650;SDS011;38537;47.226;39.702;2023-08-06T09:33:38;3.85;;;2.53;;
52650;SDS011;38537;47.226;39.702;2023-08-06T09:36:12;5.90;;;2.63;;
52650;SDS011;38537;47.226;39.702;2023-08-06T09:41:10;6.88;;;2.40;;
52650;SDS011;38537;47.226;39.702;2023-08-06T09:43:39;8.27;;;2.80;;
52650;SDS011;38537;47.226;39.702;2023-08-06T09:46:10;5.15;;;2.33;;
52650;SDS011;38537;47.226;39.702;2023-08-06T09:48:40;5.38;;;2.40;;
52650;SDS011;38537;47.226;39.702;2023-08-06T09:51:08;7.90;;;2.50;;
52650;SDS011;38537;47.226;39.702;2023-08-06T09:53:37;8.05;;;3.15;;
52650;SDS011;38537;47.226;39.702;2023-08-06T09:56:06;9.07;;;2.75;;
52650;SDS011;38537;47.226;39.702;2023-08-06T09:58:33;6.90;;;2.70;;
52650;SDS011;38537;47.226;39.702;2023-08-06T10:01:01;11.00;;;2.92;;
52650;SDS011;38537;47.226;39.702;2023-08-06T10:03:30;6.60;;;2.42;;
52650;SDS011;38537;47.226;39.702;2023-08-06T10:05:59;5.18;;;2.60;;
52650;SDS011;38537;47.226;39.702;2023-08-06T10:08:29;5.78;;;2.40;;
52650;SDS011;38537;47.226;39.702;2023-08-06T10:10:56;7.38;;;2.42;;
52650;SDS011;38537;47.226;39.702;2023-08-06T10:13:24;7.95;;;2.58;;
52650;SDS011;38537;47.226;39.702;2023-08-06T10:15:52;5.47;;;2.60;;
52650;SDS011;38537;47.226;39.702;2023-08-06T10:18:19;3.67;;;2.45;;
52650;SDS011;38537;47.226;39.702;2023-08-06T10:20:49;2.92;;;2.30;;
52650;SDS011;38537;47.226;39.702;2023-08-06T10:23:16;6.68;;;2.72;;
52650;SDS011;38537;47.226;39.702;2023-08-06T10:25:53;10.70;;;2.85;;
52650;SDS011;38537;47.226;39.702;2023-08-06T10:28:22;6.13;;;2.33;;
52650;SDS011;38537;47.226;39.702;2023-08-06T10:31:02;7.28;;;2.38;;
52650;SDS011;38537;47.226;39.702;2023-08-06T10:33:44;6.65;;;2.40;;
52650;SDS011;38537;47.226;39.702;2023-08-06T10:36:12;4.32;;;2.42;;
52650;SDS011;38537;47.226;39.702;2023-08-06T10:38:47;8.07;;;2.80;;
52650;SDS011;38537;47.226;39.702;2023-08-06T10:41:37;8.57;;;2.80;;
52650;SDS011;38537;47.226;39.702;2023-08-06T10:44:07;7.45;;;2.83;;
52650;SDS011;38537;47.226;39.702;2023-08-06T10:46:35;8.98;;;2.47;;
52650;SDS011;38537;47.226;39.702;2023-08-06T10:49:03;9.48;;;2.70;;
52650;SDS011;38537;47.226;39.702;2023-08-06T10:51:31;6.22;;;2.60;;
52650;SDS011;38537;47.226;39.702;2023-08-06T10:53:58;8.23;;;2.40;;
52650;SDS011;38537;47.226;39.702;2023-08-06T10:56:26;6.68;;;2.70;;
52650;SDS011;38537;47.226;39.702;2023-08-06T10:58:54;6.60;;;2.40;;
52650;SDS011;38537;47.226;39.702;2023-08-06T11:01:26;10.18;;;2.60;;
52650;SDS011;38537;47.226;39.702;2023-08-06T11:04:00;4.85;;;2.50;;
52650;SDS011;38537;47.226;39.702;2023-08-06T11:06:29;5.97;;;2.55;;
52650;SDS011;38537;47.226;39.702;2023-08-06T11:08:57;6.35;;;2.70;;
52650;SDS011;38537;47.226;39.702;2023-08-06T11:11:25;4.13;;;2.50;;
52650;SDS011;38537;47.226;39.702;2023-08-06T11:13:52;6.43;;;2.40;;
52650;SDS011;38537;47.226;39.702;2023-08-06T11:16:21;2.60;;;2.15;;
52650;SDS011;38537;47.226;39.702;2023-08-06T11:18:52;3.90;;;2.53;;
52650;SDS011;38537;47.226;39.702;2023-08-06T11:21:23;12.70;;;2.90;;
52650;SDS011;38537;47.226;39.702;2023-08-06T11:23:52;8.85;;;2.40;;
52650;SDS011;38537;47.226;39.702;2023-08-06T11:26:20;4.13;;;2.20;;
52650;SDS011;38537;47.226;39.702;2023-08-06T11:28:48;5.45;;;2.40;;
52650;SDS011;38537;47.226;39.702;2023-08-06T11:31:20;4.88;;;2.22;;
52650;SDS011;38537;47.226;39.702;2023-08-06T11:33:55;6.65;;;2.50;;
52650;SDS011;38537;47.226;39.702;2023-08-06T11:36:29;4.70;;;2.38;;
52650;SDS011;38537;47.226;39.702;2023-08-06T11:38:58;3.45;;;2.13;;
52650;SDS011;38537;47.226;39.702;2023-08-06T11:41:29;4.28;;;2.28;;
52650;SDS011;38537;47.226;39.702;2023-08-06T11:43:57;3.15;;;2.20;;
52650;SDS011;38537;47.226;39.702;2023-08-06T11:46:26;5.80;;;2.40;;
52650;SDS011;38537;47.226;39.702;2023-08-06T11:48:55;6.53;;;2.50;;
52650;SDS011;38537;47.226;39.702;2023-08-06T11:51:23;6.45;;;2.40;;
52650;SDS011;38537;47.226;39.702;2023-08-06T11:53:56;3.33;;;2.30;;
52650;SDS011;38537;47.226;39.702;2023-08-06T11:56:25;4.50;;;2.40;;
52650;SDS011;38537;47.226;39.702;2023-08-06T11:58:54;6.65;;;2.40;;
52650;SDS011;38537;47.226;39.702;2023-08-06T12:01:21;4.78;;;2.47;;
52650;SDS011;38537;47.226;39.702;2023-08-06T12:03:49;8.52;;;2.55;;
52650;SDS011;38537;47.226;39.702;2023-08-06T12:06:17;5.22;;;2.50;;
52650;SDS011;38537;47.226;39.702;2023-08-06T12:08:44;5.72;;;2.22;;
52650;SDS011;38537;47.226;39.702;2023-08-06T12:11:12;2.30;;;2.10;;
52650;SDS011;38537;47.226;39.702;2023-08-06T12:13:40;3.03;;;2.33;;
52650;SDS011;38537;47.226;39.702;2023-08-06T12:16:08;3.67;;;2.10;;
52650;SDS011;38537;47.226;39.702;2023-08-06T12:18:35;5.80;;;2.42;;
52650;SDS011;38537;47.226;39.702;2023-08-06T12:21:02;6.13;;;2.30;;
52650;SDS011;38537;47.226;39.702;2023-08-06T12:23:30;5.88;;;2.35;;
52650;SDS011;38537;47.226;39.702;2023-08-06T12:26:01;6.90;;;2.50;;
52650;SDS011;38537;47.226;39.702;2023-08-06T12:28:29;3.50;;;2.20;;
52650;SDS011;38537;47.226;39.702;2023-08-06T12:30:56;5.70;;;2.42;;
52650;SDS011;38537;47.226;39.702;2023-08-06T12:33:24;3.35;;;2.03;;
52650;SDS011;38537;47.226;39.702;2023-08-06T12:35:51;3.35;;;2.40;;
52650;SDS011;38537;47.226;39.702;2023-08-06T12:38:21;6.53;;;2.40;;
52650;SDS011;38537;47.226;39.702;2023-08-06T12:40:49;7.28;;;2.72;;
52650;SDS011;38537;47.226;39.702;2023-08-06T12:43:16;6.38;;;2.30;;
52650;SDS011;38537;47.226;39.702;2023-08-06T12:45:43;7.10;;;2.38;;
52650;SDS011;38537;47.226;39.702;2023-08-06T12:48:11;6.05;;;2.40;;
52650;SDS011;38537;47.226;39.702;2023-08-06T12:50:38;5.45;;;2.10;;
52650;SDS011;38537;47.226;39.702;2023-08-06T12:53:06;7.05;;;2.35;;
52650;SDS011;38537;47.226;39.702;2023-08-06T12:55:33;3.35;;;2.30;;
52650;SDS011;38537;47.226;39.702;2023-08-06T12:58:01;7.72;;;2.53;;
52650;SDS011;38537;47.226;39.702;2023-08-06T13:00:28;6.63;;;2.40;;
52650;SDS011;38537;47.226;39.702;2023-08-06T13:02:55;4.30;;;2.13;;
52650;SDS011;38537;47.226;39.702;2023-08-06T13:05:23;3.15;;;2.17;;
52650;SDS011;38537;47.226;39.702;2023-08-06T13:07:50;5.78;;;2.50;;
52650;SDS011;38537;47.226;39.702;2023-08-06T13:10:18;3.70;;;2.30;;
52650;SDS011;38537;47.226;39.702;2023-08-06T13:12:45;5.50;;;2.65;;
52650;SDS011;38537;47.226;39.702;2023-08-06T13:15:13;4.70;;;2.45;;
52650;SDS011;38537;47.226;39.702;2023-08-06T13:17:41;4.68;;;2.55;;
52650;SDS011;38537;47.226;39.702;2023-08-06T13:20:09;3.83;;;2.20;;
52650;SDS011;38537;47.226;39.702;2023-08-06T13:22:37;4.75;;;2.60;;
52650;SDS011;38537;47.226;39.702;2023-08-06T13:25:05;5.47;;;2.20;;
52650;SDS011;38537;47.226;39.702;2023-08-06T13:27:32;5.05;;;2.38;;
52650;SDS011;38537;47.226;39.702;2023-08-06T13:30:00;4.60;;;2.72;;
52650;SDS011;38537;47.226;39.702;2023-08-06T13:32:30;7.43;;;2.35;;
52650;SDS011;38537;47.226;39.702;2023-08-06T13:34:59;3.05;;;2.38;;
52650;SDS011;38537;47.226;39.702;2023-08-06T13:37:29;3.85;;;2.40;;
52650;SDS011;38537;47.226;39.702;2023-08-06T13:39:57;3.55;;;2.03;;
52650;SDS011;38537;47.226;39.702;2023-08-06T13:42:24;5.13;;;2.25;;
52650;SDS011;38537;47.226;39.702;2023-08-06T13:44:51;4.95;;;2.38;;
52650;SDS011;38537;47.226;39.702;2023-08-06T13:47:19;4.18;;;2.42;;
52650;SDS011;38537;47.226;39.702;2023-08-06T13:49:47;5.20;;;2.17;;
52650;SDS011;38537;47.226;39.702;2023-08-06T13:52:16;4.55;;;2.20;;
52650;SDS011;38537;47.226;39.702;2023-08-06T13:54:48;9.87;;;2.70;;
52650;SDS011;38537;47.226;39.702;2023-08-06T13:57:16;6.45;;;2.40;;
52650;SDS011;38537;47.226;39.702;2023-08-06T13:59:46;4.70;;;2.85;;
52650;SDS011;38537;47.226;39.702;2023-08-06T14:02:14;4.05;;;2.60;;
52650;SDS011;38537;47.226;39.702;2023-08-06T14:04:42;2.63;;;2.42;;
52650;SDS011;38537;47.226;39.702;2023-08-06T14:07:09;6.20;;;2.60;;
52650;SDS011;38537;47.226;39.702;2023-08-06T14:09:37;4.40;;;3.22;;
52650;SDS011;38537;47.226;39.702;2023-08-06T14:12:06;3.70;;;2.88;;
52650;SDS011;38537;47.226;39.702;2023-08-06T14:14:33;5.28;;;2.83;;
52650;SDS011;38537;47.226;39.702;2023-08-06T14:17:01;5.25;;;3.03;;
52650;SDS011;38537;47.226;39.702;2023-08-06T14:19:29;7.25;;;3.15;;
52650;SDS011;38537;47.226;39.702;2023-08-06T14:21:57;6.32;;;3.28;;
52650;SDS011;38537;47.226;39.702;2023-08-06T14:24:24;4.07;;;2.70;;
52650;SDS011;38537;47.226;39.702;2023-08-06T14:26:51;6.68;;;3.00;;
52650;SDS011;38537;47.226;39.702;2023-08-06T14:29:20;5.03;;;2.92;;
52650;SDS011;38537;47.226;39.702;2023-08-06T14:31:47;9.32;;;3.13;;
52650;SDS011;38537;47.226;39.702;2023-08-06T14:34:15;10.50;;;3.03;;
52650;SDS011;38537;47.226;39.702;2023-08-06T14:36:42;5.50;;;2.60;;
52650;SDS011;38537;47.226;39.702;2023-08-06T14:39:09;7.65;;;2.70;;
52650;SDS011;38537;47.226;39.702;2023-08-06T14:41:37;5.20;;;2.70;;
52650;SDS011;38537;47.226;39.702;2023-08-06T14:44:04;7.50;;;3.10;;
52650;SDS011;38537;47.226;39.702;2023-08-06T14:46:34;4.55;;;2.70;;
52650;SDS011;38537;47.226;39.702;2023-08-06T14:49:02;9.80;;;2.80;;
52650;SDS011;38537;47.226;39.702;2023-08-06T14:51:29;10.23;;;3.00;;
52650;SDS011;38537;47.226;39.702;2023-08-06T14:53:56;4.95;;;2.80;;
52650;SDS011;38537;47.226;39.702;2023-08-06T14:56:24;4.43;;;2.55;;